createdAt,value
2022-08-07T00:04:46.515Z,10.41
2022-08-07T00:10:18.996Z,10.32
2022-08-07T00:15:23.208Z,10.24
2022-08-07T00:20:35.376Z,10.15
2022-08-07T00:25:43.692Z,10.06
2022-08-07T00:30:54.419Z,9.98
2022-08-07T00:36:04.295Z,9.91
2022-08-07T00:41:14.704Z,9.83
2022-08-07T00:46:23.397Z,9.75
2022-08-07T00:51:58.498Z,9.68
2022-08-07T00:57:02.066Z,9.62
2022-08-07T01:02:28.883Z,9.55
2022-08-07T01:07:39.450Z,9.50
2022-08-07T01:12:53.715Z,9.45
2022-08-07T01:18:05.696Z,9.39
2022-08-07T01:23:21.022Z,9.34
2022-08-07T01:28:48.380Z,9.29
2022-08-07T01:34:04.456Z,9.25
2022-08-07T01:39:16.878Z,9.20
2022-08-07T01:44:32.049Z,9.16
2022-08-07T01:49:41.435Z,9.12
2022-08-07T01:54:48.687Z,9.08
2022-08-07T02:00:03.231Z,9.06
2022-08-07T02:05:28.632Z,9.13
2022-08-07T02:11:06.603Z,9.13
2022-08-07T02:16:28.649Z,9.11
2022-08-07T02:21:55.068Z,9.09
2022-08-07T02:27:04.299Z,9.05
2022-08-07T02:32:14.579Z,9.00
2022-08-07T02:37:25.606Z,8.95
2022-08-07T02:42:35.672Z,8.91
2022-08-07T02:47:48.902Z,8.87
2022-08-07T02:53:03.726Z,8.82
2022-08-07T02:58:19.373Z,8.79
2022-08-07T03:03:50.102Z,8.76
2022-08-07T03:09:05.486Z,8.74
2022-08-07T03:14:15.246Z,8.72
2022-08-07T03:19:24.445Z,8.70
2022-08-07T03:24:39.057Z,8.68
2022-08-07T03:29:51.254Z,8.66
2022-08-07T03:35:17.781Z,8.66
2022-08-07T03:40:31.105Z,8.68
2022-08-07T03:45:48.754Z,8.73
2022-08-07T03:51:02.005Z,8.81
2022-08-07T03:56:32.587Z,8.94
2022-08-07T04:01:47.140Z,9.12
2022-08-07T04:07:00.146Z,9.31
2022-08-07T04:12:24.310Z,9.49
2022-08-07T04:18:56.893Z,9.64
2022-08-07T04:23:08.447Z,9.79
2022-08-07T04:28:29.347Z,9.91
2022-08-07T04:33:38.936Z,10.02
2022-08-07T04:38:48.146Z,10.16
2022-08-07T04:44:14.602Z,10.33
2022-08-07T04:49:38.762Z,10.61
2022-08-07T04:54:58.130Z,10.93
2022-08-07T05:00:18.809Z,11.27
2022-08-07T05:05:53.524Z,11.64
2022-08-07T05:11:11.692Z,12.03
2022-08-07T05:16:27.759Z,12.40
2022-08-07T05:21:59.864Z,12.75
2022-08-07T05:27:07.671Z,13.11
2022-08-07T05:32:27.961Z,13.46
2022-08-07T05:37:40.903Z,13.79
2022-08-07T05:42:56.031Z,14.11
2022-08-07T05:48:08.069Z,14.37
2022-08-07T05:54:12.475Z,14.60
2022-08-07T05:58:53.267Z,14.83
2022-08-07T06:04:10.042Z,15.02
2022-08-07T06:09:22.791Z,15.18
2022-08-07T06:14:50.947Z,15.34
2022-08-07T06:20:03.979Z,15.46
2022-08-07T06:25:15.210Z,15.57
2022-08-07T06:30:36.213Z,15.70
2022-08-07T06:36:06.919Z,15.82
2022-08-07T06:42:02.156Z,15.99
2022-08-07T06:47:10.680Z,16.27
2022-08-07T06:52:31.419Z,16.60
2022-08-07T06:57:56.822Z,16.90
2022-08-07T07:03:13.642Z,17.10
2022-08-07T07:08:33.352Z,17.22
2022-08-07T07:13:58.060Z,17.32
2022-08-07T07:19:56.920Z,17.40
2022-08-07T07:24:57.051Z,17.49
2022-08-07T07:30:14.460Z,17.59
2022-08-07T07:36:05.690Z,17.70
2022-08-07T07:41:16.577Z,17.82
2022-08-07T07:46:37.489Z,17.93
2022-08-07T07:51:58.328Z,18.06
2022-08-07T07:57:09.844Z,18.21
2022-08-07T08:02:22.521Z,18.38
2022-08-07T08:07:59.858Z,18.52
2022-08-07T08:13:15.227Z,18.63
2022-08-07T08:18:29.616Z,18.76
2022-08-07T08:23:58.288Z,18.85
2022-08-07T08:29:09.078Z,18.97
2022-08-07T08:34:27.314Z,19.07
2022-08-07T08:39:55.235Z,19.18
2022-08-07T08:45:15.500Z,19.26
2022-08-07T08:50:34.873Z,19.33
2022-08-07T08:55:58.804Z,19.42
2022-08-07T09:01:19.407Z,19.51
2022-08-07T09:06:40.384Z,19.58
2022-08-07T09:12:20.044Z,19.65
2022-08-07T09:17:58.879Z,19.70
2022-08-07T09:24:53.814Z,19.76
2022-08-07T09:30:05.169Z,19.85
2022-08-07T09:34:43.052Z,19.97
2022-08-07T09:39:57.726Z,20.05
2022-08-07T09:47:42.358Z,20.11
2022-08-07T09:51:01.419Z,20.12
2022-08-07T09:56:41.802Z,20.11
2022-08-07T10:02:10.937Z,20.12
2022-08-07T10:07:53.103Z,20.15
2022-08-07T10:13:55.086Z,20.21
2022-08-07T10:19:30.199Z,20.27
2022-08-07T10:24:59.594Z,20.33
2022-08-07T10:30:13.065Z,20.40
2022-08-07T10:35:56.258Z,20.48
2022-08-07T10:41:09.118Z,20.56
2022-08-07T10:46:26.552Z,20.64
2022-08-07T10:52:12.964Z,20.71
2022-08-07T10:57:17.875Z,20.77
2022-08-07T11:02:49.003Z,20.80
2022-08-07T11:08:12.444Z,20.81
2022-08-07T11:14:44.639Z,20.86
2022-08-07T11:19:07.174Z,20.96
2022-08-07T11:24:24.104Z,21.07
2022-08-07T11:29:47.418Z,21.29
2022-08-07T11:35:03.077Z,21.43
2022-08-07T11:40:27.613Z,21.54
2022-08-07T11:45:53.089Z,21.62
2022-08-07T11:51:44.708Z,21.65
2022-08-07T11:57:05.347Z,21.66
2022-08-07T12:02:38.135Z,21.64
2022-08-07T12:08:11.402Z,21.62
2022-08-07T12:13:47.509Z,21.61
2022-08-07T12:18:57.707Z,21.58
2022-08-07T12:24:37.703Z,21.55
2022-08-07T12:29:55.275Z,21.50
2022-08-07T12:35:08.206Z,21.46
2022-08-07T12:40:46.721Z,21.43
2022-08-07T12:45:56.408Z,21.42
2022-08-07T12:51:17.291Z,21.44
2022-08-07T12:56:27.947Z,21.46
2022-08-07T13:01:51.392Z,21.50
2022-08-07T13:08:12.913Z,21.54
2022-08-07T13:13:47.883Z,21.60
2022-08-07T13:18:55.589Z,21.64
2022-08-07T13:24:11.440Z,21.66
2022-08-07T13:29:25.893Z,21.67
2022-08-07T13:34:50.886Z,21.68
2022-08-07T13:40:35.230Z,21.69
2022-08-07T13:46:11.285Z,21.69
2022-08-07T13:52:22.672Z,21.70
2022-08-07T13:57:09.034Z,21.70
2022-08-07T14:02:33.354Z,21.71
2022-08-07T14:08:00.864Z,21.75
2022-08-07T14:13:09.875Z,21.80
2022-08-07T14:18:28.675Z,21.84
2022-08-07T14:24:00.005Z,21.84
2022-08-07T14:30:06.431Z,21.78
2022-08-07T14:34:45.715Z,21.72
2022-08-07T14:40:15.654Z,21.66
2022-08-07T14:45:26.059Z,21.60
2022-08-07T14:50:57.246Z,21.57
2022-08-07T14:56:13.291Z,21.53
2022-08-07T15:01:25.978Z,21.53
2022-08-07T15:06:52.883Z,21.55
2022-08-07T15:12:08.506Z,21.55
2022-08-07T15:17:21.218Z,21.54
2022-08-07T15:22:33.751Z,21.51
2022-08-07T15:28:02.095Z,21.48
2022-08-07T15:33:33.439Z,21.43
2022-08-07T15:38:59.006Z,21.37
2022-08-07T15:44:13.024Z,21.34
2022-08-07T15:50:05.767Z,21.29
2022-08-07T15:54:57.220Z,21.25
2022-08-07T16:00:30.988Z,21.23
2022-08-07T16:05:47.098Z,21.22
2022-08-07T16:10:59.759Z,21.22
2022-08-07T16:16:48.249Z,21.23
2022-08-07T16:22:03.293Z,21.23
2022-08-07T16:27:40.599Z,21.24
2022-08-07T16:34:03.398Z,21.24
2022-08-07T16:39:01.211Z,21.21
2022-08-07T16:45:14.729Z,21.16
2022-08-07T16:50:52.572Z,21.12
2022-08-07T16:56:12.828Z,21.07
2022-08-07T17:01:41.261Z,21.03
2022-08-07T17:07:03.202Z,20.98
2022-08-07T17:12:34.510Z,20.94
2022-08-07T17:17:55.248Z,20.89
2022-08-07T17:23:32.572Z,20.84
2022-08-07T17:29:04.650Z,20.79
2022-08-07T17:34:35.463Z,20.72
2022-08-07T17:40:03.428Z,20.66
2022-08-07T17:45:19.764Z,20.58
2022-08-07T17:50:47.826Z,20.51
2022-08-07T17:56:06.619Z,20.43
2022-08-07T18:01:23.681Z,20.33
2022-08-07T18:06:44.215Z,20.22
2022-08-07T18:12:11.867Z,20.09
2022-08-07T18:18:36.656Z,19.94
2022-08-07T18:23:35.241Z,19.80
2022-08-07T18:28:59.124Z,19.65
2022-08-07T18:34:40.873Z,19.51
2022-08-07T18:40:42.471Z,19.34
2022-08-07T18:46:25.120Z,19.18
2022-08-07T18:52:35.204Z,19.03
2022-08-07T18:57:30.112Z,18.86
2022-08-07T19:03:01.433Z,18.68
2022-08-07T19:08:14.475Z,18.50
2022-08-07T19:13:39.213Z,18.32
2022-08-07T19:18:56.706Z,18.13
2022-08-07T19:24:12.541Z,17.94
2022-08-07T19:31:01.611Z,17.72
2022-08-07T19:35:18.690Z,17.51
2022-08-07T19:40:49.397Z,17.30
2022-08-07T19:46:08.190Z,17.10
2022-08-07T19:51:52.392Z,16.92
2022-08-07T19:58:01.222Z,16.72
2022-08-07T20:02:39.124Z,16.53
2022-08-07T20:07:50.775Z,16.33
2022-08-07T20:13:06.101Z,16.17
2022-08-07T20:18:19.897Z,15.99
2022-08-07T20:23:43.373Z,15.82
2022-08-07T20:29:00.106Z,15.65
2022-08-07T20:34:10.165Z,15.49
2022-08-07T20:40:03.240Z,15.34
2022-08-07T20:44:59.791Z,15.18
2022-08-07T20:50:10.954Z,15.02
2022-08-07T20:55:23.569Z,14.89
2022-08-07T21:00:42.752Z,14.76
2022-08-07T21:05:56.391Z,14.62
2022-08-07T21:11:05.589Z,14.50
2022-08-07T21:16:20.103Z,14.39
2022-08-07T21:21:56.627Z,14.28
2022-08-07T21:27:22.039Z,14.19
2022-08-07T21:32:46.701Z,14.11
2022-08-07T21:38:11.355Z,14.06
2022-08-07T21:43:47.417Z,14.02
2022-08-07T21:49:01.277Z,14.00
2022-08-07T21:54:21.820Z,13.99
2022-08-07T22:00:04.673Z,14.01
2022-08-07T22:05:22.137Z,14.02
2022-08-07T22:10:51.763Z,14.06
2022-08-07T22:16:43.091Z,14.09
2022-08-07T22:22:02.836Z,14.15
2022-08-07T22:27:19.145Z,14.22
2022-08-07T22:32:39.119Z,14.29
2022-08-07T22:38:01.833Z,14.36
2022-08-07T22:43:17.928Z,14.43
2022-08-07T22:49:02.237Z,14.49
2022-08-07T22:54:50.973Z,14.55
2022-08-07T23:00:13.238Z,14.60
2022-08-07T23:06:07.731Z,14.65
2022-08-07T23:11:41.212Z,14.67
2022-08-07T23:17:05.362Z,14.69
2022-08-07T23:22:32.203Z,14.70
2022-08-07T23:28:21.792Z,14.70
2022-08-07T23:34:35.329Z,14.71
2022-08-07T23:39:48.717Z,14.71
2022-08-07T23:45:33.188Z,14.70
2022-08-07T23:50:54.475Z,14.70
2022-08-07T23:56:12.792Z,14.70
